sensor_id;sensor_type;location;lat;lon;timestamp;pressure;altitude;pressure_sealevel;temperature;humidity
41202;BME280;26936;50.524;8.684;2023-04-06T00:00:12;99667.44;;;0.23;89.20
41202;BME280;26936;50.524;8.684;2023-04-06T00:02:39;99663.88;;;0.22;88.52
41202;BME280;26936;50.524;8.684;2023-04-06T00:05:04;99659.13;;;0.23;88.47
41202;BME280;26936;50.524;8.684;2023-04-06T00:07:30;99662.66;;;0.23;88.41
41202;BME280;26936;50.524;8.684;2023-04-06T00:09:55;99658.59;;;0.14;90.13
41202;BME280;26936;50.524;8.684;2023-04-06T00:12:20;99654.63;;;0.11;89.32
41202;BME280;26936;50.524;8.684;2023-04-06T00:14:46;99650.25;;;0.10;89.55
41202;BME280;26936;50.524;8.684;2023-04-06T00:17:11;99651.81;;;0.08;89.15
41202;BME280;26936;50.524;8.684;2023-04-06T00:19:36;99648.56;;;0.02;89.04
41202;BME280;26936;50.524;8.684;2023-04-06T00:22:02;99660.03;;;0.00;89.90
41202;BME280;26936;50.524;8.684;2023-04-06T00:24:27;99654.06;;;-0.02;89.84
41202;BME280;26936;50.524;8.684;2023-04-06T00:26:52;99652.03;;;-0.05;90.14
41202;BME280;26936;50.524;8.684;2023-04-06T00:29:17;99653.19;;;-0.09;91.07
41202;BME280;26936;50.524;8.684;2023-04-06T00:31:43;99654.72;;;-0.12;90.70
41202;BME280;26936;50.524;8.684;2023-04-06T00:34:09;99658.72;;;-0.09;90.64
41202;BME280;26936;50.524;8.684;2023-04-06T00:36:35;99654.31;;;-0.14;90.87
41202;BME280;26936;50.524;8.684;2023-04-06T00:39:00;99653.44;;;-0.18;91.00
41202;BME280;26936;50.524;8.684;2023-04-06T00:41:25;99643.13;;;-0.21;91.92
41202;BME280;26936;50.524;8.684;2023-04-06T00:43:51;99645.16;;;-0.18;91.45
41202;BME280;26936;50.524;8.684;2023-04-06T00:46:16;99633.28;;;-0.18;91.20
41202;BME280;26936;50.524;8.684;2023-04-06T00:48:41;99635.63;;;-0.20;91.01
41202;BME280;26936;50.524;8.684;2023-04-06T00:51:06;99630.88;;;-0.20;90.64
41202;BME280;26936;50.524;8.684;2023-04-06T00:53:32;99632.75;;;-0.27;90.49
41202;BME280;26936;50.524;8.684;2023-04-06T00:55:57;99633.63;;;-0.23;90.13
41202;BME280;26936;50.524;8.684;2023-04-06T00:58:23;99627.53;;;-0.32;90.92
41202;BME280;26936;50.524;8.684;2023-04-06T01:00:49;99629.09;;;-0.35;90.78
41202;BME280;26936;50.524;8.684;2023-04-06T01:03:14;99624.34;;;-0.34;90.95
41202;BME280;26936;50.524;8.684;2023-04-06T01:05:39;99619.69;;;-0.30;90.27
41202;BME280;26936;50.524;8.684;2023-04-06T01:08:06;99624.34;;;-0.34;90.19
41202;BME280;26936;50.524;8.684;2023-04-06T01:10:32;99613.25;;;-0.38;90.63
41202;BME280;26936;50.524;8.684;2023-04-06T01:12:57;99619.44;;;-0.48;91.68
41202;BME280;26936;50.524;8.684;2023-04-06T01:15:23;99613.53;;;-0.46;91.39
41202;BME280;26936;50.524;8.684;2023-04-06T01:17:49;99611.53;;;-0.46;90.77
41202;BME280;26936;50.524;8.684;2023-04-06T01:20:14;99616.63;;;-0.51;91.44
41202;BME280;26936;50.524;8.684;2023-04-06T01:22:39;99616.13;;;-0.57;92.03
41202;BME280;26936;50.524;8.684;2023-04-06T01:25:05;99615.69;;;-0.59;91.52
41202;BME280;26936;50.524;8.684;2023-04-06T01:27:31;99607.78;;;-0.60;91.64
41202;BME280;26936;50.524;8.684;2023-04-06T01:29:56;99604.97;;;-0.64;92.39
41202;BME280;26936;50.524;8.684;2023-04-06T01:32:21;99602.22;;;-0.64;92.97
41202;BME280;26936;50.524;8.684;2023-04-06T01:34:47;99592.56;;;-0.73;93.63
41202;BME280;26936;50.524;8.684;2023-04-06T01:37:12;99593.50;;;-0.66;92.51
41202;BME280;26936;50.524;8.684;2023-04-06T01:39:37;99599.41;;;-0.67;92.51
41202;BME280;26936;50.524;8.684;2023-04-06T01:42:03;99598.09;;;-0.73;92.47
41202;BME280;26936;50.524;8.684;2023-04-06T01:44:28;99603.63;;;-0.73;92.78
41202;BME280;26936;50.524;8.684;2023-04-06T01:46:55;99587.72;;;-0.80;93.50
41202;BME280;26936;50.524;8.684;2023-04-06T01:49:20;99593.25;;;-0.80;93.29
41202;BME280;26936;50.524;8.684;2023-04-06T01:51:45;99591.25;;;-0.83;93.46
41202;BME280;26936;50.524;8.684;2023-04-06T01:54:11;99595.19;;;-0.84;93.72
41202;BME280;26936;50.524;8.684;2023-04-06T01:56:36;99602.63;;;-0.88;94.32
41202;BME280;26936;50.524;8.684;2023-04-06T01:59:01;99592.31;;;-0.91;94.09
41202;BME280;26936;50.524;8.684;2023-04-06T02:01:27;99597.91;;;-0.87;93.92
41202;BME280;26936;50.524;8.684;2023-04-06T02:03:52;99594.63;;;-0.93;94.14
41202;BME280;26936;50.524;8.684;2023-04-06T02:06:17;99586.34;;;-0.93;93.81
41202;BME280;26936;50.524;8.684;2023-04-06T02:08:42;99585.97;;;-0.91;94.08
41202;BME280;26936;50.524;8.684;2023-04-06T02:11:08;99589.84;;;-0.96;94.38
41202;BME280;26936;50.524;8.684;2023-04-06T02:13:33;99593.06;;;-0.94;94.08
41202;BME280;26936;50.524;8.684;2023-04-06T02:15:58;99589.78;;;-0.99;93.96
41202;BME280;26936;50.524;8.684;2023-04-06T02:18:24;99585.81;;;-1.02;94.38
41202;BME280;26936;50.524;8.684;2023-04-06T02:20:49;99585.75;;;-1.05;95.13
41202;BME280;26936;50.524;8.684;2023-04-06T02:23:14;99585.69;;;-1.09;95.27
41202;BME280;26936;50.524;8.684;2023-04-06T02:25:40;99590.06;;;-1.08;95.08
41202;BME280;26936;50.524;8.684;2023-04-06T02:28:06;99584.13;;;-1.10;94.90
41202;BME280;26936;50.524;8.684;2023-04-06T02:30:31;99581.22;;;-1.17;96.27
41202;BME280;26936;50.524;8.684;2023-04-06T02:32:57;99581.78;;;-1.08;95.15
41202;BME280;26936;50.524;8.684;2023-04-06T02:35:24;99583.31;;;-1.10;95.18
41202;BME280;26936;50.524;8.684;2023-04-06T02:37:50;99570.28;;;-1.10;95.44
41202;BME280;26936;50.524;8.684;2023-04-06T02:40:15;99576.97;;;-1.11;96.47
41202;BME280;26936;50.524;8.684;2023-04-06T02:42:40;99578.16;;;-1.12;96.09
41202;BME280;26936;50.524;8.684;2023-04-06T02:45:06;99576.97;;;-1.11;95.59
41202;BME280;26936;50.524;8.684;2023-04-06T02:47:31;99574.44;;;-1.23;95.97
41202;BME280;26936;50.524;8.684;2023-04-06T02:49:56;99569.72;;;-1.22;96.12
41202;BME280;26936;50.524;8.684;2023-04-06T02:52:22;99572.47;;;-1.22;95.37
41202;BME280;26936;50.524;8.684;2023-04-06T02:54:47;99568.31;;;-1.35;95.93
41202;BME280;26936;50.524;8.684;2023-04-06T02:57:12;99565.53;;;-1.35;95.97
41202;BME280;26936;50.524;8.684;2023-04-06T02:59:37;99570.31;;;-1.32;95.63
41202;BME280;26936;50.524;8.684;2023-04-06T03:02:03;99576.09;;;-1.41;96.41
41202;BME280;26936;50.524;8.684;2023-04-06T03:04:28;99567.56;;;-1.32;96.31
41202;BME280;26936;50.524;8.684;2023-04-06T03:06:54;99572.66;;;-1.34;96.28
41202;BME280;26936;50.524;8.684;2023-04-06T03:09:20;99580.44;;;-1.40;96.48
41202;BME280;26936;50.524;8.684;2023-04-06T03:11:45;99579.59;;;-1.44;97.26
41202;BME280;26936;50.524;8.684;2023-04-06T03:14:10;99575.53;;;-1.50;97.18
41202;BME280;26936;50.524;8.684;2023-04-06T03:16:35;99581.41;;;-1.52;97.55
41202;BME280;26936;50.524;8.684;2023-04-06T03:19:01;99569.09;;;-1.58;97.85
41202;BME280;26936;50.524;8.684;2023-04-06T03:21:26;99575.50;;;-1.54;97.16
41202;BME280;26936;50.524;8.684;2023-04-06T03:23:51;99578.13;;;-1.61;97.21
41202;BME280;26936;50.524;8.684;2023-04-06T03:26:17;99580.13;;;-1.58;97.47
41202;BME280;26936;50.524;8.684;2023-04-06T03:28:42;99573.75;;;-1.62;97.56
41202;BME280;26936;50.524;8.684;2023-04-06T03:31:07;99570.94;;;-1.65;97.28
41202;BME280;26936;50.524;8.684;2023-04-06T03:33:33;99572.81;;;-1.69;97.47
41202;BME280;26936;50.524;8.684;2023-04-06T03:35:58;99576.03;;;-1.67;97.49
41202;BME280;26936;50.524;8.684;2023-04-06T03:38:23;99576.03;;;-1.67;97.79
41202;BME280;26936;50.524;8.684;2023-04-06T03:40:48;99579.81;;;-1.75;98.43
41202;BME280;26936;50.524;8.684;2023-04-06T03:43:14;99575.81;;;-1.78;98.37
41202;BME280;26936;50.524;8.684;2023-04-06T03:45:39;99588.03;;;-1.79;98.88
41202;BME280;26936;50.524;8.684;2023-04-06T03:48:05;99584.84;;;-1.81;98.28
41202;BME280;26936;50.524;8.684;2023-04-06T03:50:30;99590.44;;;-1.77;98.40
41202;BME280;26936;50.524;8.684;2023-04-06T03:52:55;99585.63;;;-1.80;97.53
41202;BME280;26936;50.524;8.684;2023-04-06T03:55:21;99580.84;;;-1.83;97.77
41202;BME280;26936;50.524;8.684;2023-04-06T03:57:46;99585.28;;;-1.79;97.58
41202;BME280;26936;50.524;8.684;2023-04-06T04:00:12;99587.97;;;-1.82;98.18
41202;BME280;26936;50.524;8.684;2023-04-06T04:02:37;99578.84;;;-1.86;98.10
41202;BME280;26936;50.524;8.684;2023-04-06T04:05:03;99588.63;;;-1.89;98.07
41202;BME280;26936;50.524;8.684;2023-04-06T04:07:28;99585.88;;;-1.89;98.09
41202;BME280;26936;50.524;8.684;2023-04-06T04:09:53;99586.91;;;-1.97;98.84
41202;BME280;26936;50.524;8.684;2023-04-06T04:12:18;99585.38;;;-1.94;98.34
41202;BME280;26936;50.524;8.684;2023-04-06T04:14:44;99584.13;;;-1.97;98.71
41202;BME280;26936;50.524;8.684;2023-04-06T04:17:09;99591.59;;;-1.97;98.86
41202;BME280;26936;50.524;8.684;2023-04-06T04:19:35;99586.59;;;-1.92;98.81
41202;BME280;26936;50.524;8.684;2023-04-06T04:22:00;99593.50;;;-2.01;98.43
41202;BME280;26936;50.524;8.684;2023-04-06T04:24:25;99593.22;;;-1.96;98.47
41202;BME280;26936;50.524;8.684;2023-04-06T04:26:51;99588.81;;;-2.01;97.95
41202;BME280;26936;50.524;8.684;2023-04-06T04:29:16;99596.19;;;-2.05;98.91
41202;BME280;26936;50.524;8.684;2023-04-06T04:31:41;99589.47;;;-2.07;98.67
41202;BME280;26936;50.524;8.684;2023-04-06T04:34:07;99592.16;;;-2.11;98.54
41202;BME280;26936;50.524;8.684;2023-04-06T04:36:32;99598.41;;;-2.14;99.08
41202;BME280;26936;50.524;8.684;2023-04-06T04:38:57;99597.59;;;-2.14;98.83
41202;BME280;26936;50.524;8.684;2023-04-06T04:41:23;99603.03;;;-2.18;100.00
41202;BME280;26936;50.524;8.684;2023-04-06T04:43:48;99598.31;;;-2.17;99.30
41202;BME280;26936;50.524;8.684;2023-04-06T04:46:13;99597.50;;;-2.18;98.97
41202;BME280;26936;50.524;8.684;2023-04-06T04:48:38;99603.75;;;-2.21;99.63
41202;BME280;26936;50.524;8.684;2023-04-06T04:51:04;99599.38;;;-2.22;100.00
41202;BME280;26936;50.524;8.684;2023-04-06T04:53:30;99595.94;;;-2.19;100.00
41202;BME280;26936;50.524;8.684;2023-04-06T04:55:55;99603.31;;;-2.23;100.00
41202;BME280;26936;50.524;8.684;2023-04-06T04:58:21;99605.25;;;-2.23;100.00
41202;BME280;26936;50.524;8.684;2023-04-06T05:00:46;99597.81;;;-2.23;100.00
41202;BME280;26936;50.524;8.684;2023-04-06T05:03:25;99601.84;;;-2.17;100.00
41202;BME280;26936;50.524;8.684;2023-04-06T05:05:51;99604.19;;;-2.19;100.00
41202;BME280;26936;50.524;8.684;2023-04-06T05:08:16;99605.88;;;-2.14;100.00
41202;BME280;26936;50.524;8.684;2023-04-06T05:10:41;99609.56;;;-2.07;100.00
41202;BME280;26936;50.524;8.684;2023-04-06T05:13:07;99601.34;;;-2.03;100.00
41202;BME280;26936;50.524;8.684;2023-04-06T05:15:32;99610.16;;;-1.98;100.00
41202;BME280;26936;50.524;8.684;2023-04-06T05:18:00;99607.78;;;-1.96;99.75
41202;BME280;26936;50.524;8.684;2023-04-06T05:20:25;99605.25;;;-1.85;99.77
41202;BME280;26936;50.524;8.684;2023-04-06T05:22:51;99601.84;;;-1.79;99.00
41202;BME280;26936;50.524;8.684;2023-04-06T05:25:16;99609.38;;;-1.76;98.20
41202;BME280;26936;50.524;8.684;2023-04-06T05:27:41;99615.41;;;-1.70;98.19
41202;BME280;26936;50.524;8.684;2023-04-06T05:30:07;99614.38;;;-1.62;98.26
41202;BME280;26936;50.524;8.684;2023-04-06T05:32:33;99615.81;;;-1.49;98.54
41202;BME280;26936;50.524;8.684;2023-04-06T05:34:58;99606.31;;;-1.29;98.08
41202;BME280;26936;50.524;8.684;2023-04-06T05:37:24;99616.16;;;-1.05;97.18
41202;BME280;26936;50.524;8.684;2023-04-06T05:39:49;99615.38;;;-0.54;95.27
41202;BME280;26936;50.524;8.684;2023-04-06T05:42:15;99614.31;;;-0.16;93.71
41202;BME280;26936;50.524;8.684;2023-04-06T05:44:40;99613.44;;;0.43;90.76
41202;BME280;26936;50.524;8.684;2023-04-06T05:47:06;99612.06;;;1.06;88.51
41202;BME280;26936;50.524;8.684;2023-04-06T05:49:31;99611.72;;;1.69;85.04
41202;BME280;26936;50.524;8.684;2023-04-06T05:51:56;99611.97;;;2.22;82.01
41202;BME280;26936;50.524;8.684;2023-04-06T05:54:22;99608.09;;;2.68;79.82
41202;BME280;26936;50.524;8.684;2023-04-06T05:56:47;99609.31;;;2.96;78.17
41202;BME280;26936;50.524;8.684;2023-04-06T05:59:12;99606.16;;;3.36;74.04
41202;BME280;26936;50.524;8.684;2023-04-06T06:01:37;99601.63;;;3.98;73.26
41202;BME280;26936;50.524;8.684;2023-04-06T06:04:03;99599.50;;;4.27;70.42
41202;BME280;26936;50.524;8.684;2023-04-06T06:06:29;99595.38;;;4.56;68.49
41202;BME280;26936;50.524;8.684;2023-04-06T06:08:57;99605.09;;;4.92;67.04
41202;BME280;26936;50.524;8.684;2023-04-06T06:11:26;99602.38;;;4.81;66.49
41202;BME280;26936;50.524;8.684;2023-04-06T06:13:51;99591.09;;;4.99;65.54
41202;BME280;26936;50.524;8.684;2023-04-06T06:16:17;99589.41;;;5.12;64.16
41202;BME280;26936;50.524;8.684;2023-04-06T06:18:43;99595.22;;;5.72;63.24
41202;BME280;26936;50.524;8.684;2023-04-06T06:21:08;99597.03;;;5.48;63.30
41202;BME280;26936;50.524;8.684;2023-04-06T06:23:34;99600.91;;;5.62;63.81
41202;BME280;26936;50.524;8.684;2023-04-06T06:25:59;99595.97;;;6.13;61.47
41202;BME280;26936;50.524;8.684;2023-04-06T06:28:26;99602.19;;;6.84;60.08
41202;BME280;26936;50.524;8.684;2023-04-06T06:30:51;99603.53;;;7.26;59.13
41202;BME280;26936;50.524;8.684;2023-04-06T06:33:16;99601.81;;;7.98;56.81
41202;BME280;26936;50.524;8.684;2023-04-06T06:35:42;99591.41;;;8.18;55.88
41202;BME280;26936;50.524;8.684;2023-04-06T06:38:07;99596.91;;;8.80;55.25
41202;BME280;26936;50.524;8.684;2023-04-06T06:40:33;99597.47;;;9.07;54.37
41202;BME280;26936;50.524;8.684;2023-04-06T06:42:58;99592.50;;;9.76;53.15
41202;BME280;26936;50.524;8.684;2023-04-06T06:45:23;99590.78;;;10.10;51.43
41202;BME280;26936;50.524;8.684;2023-04-06T06:47:50;99587.06;;;10.42;50.54
41202;BME280;26936;50.524;8.684;2023-04-06T06:50:15;99589.16;;;11.29;48.79
41202;BME280;26936;50.524;8.684;2023-04-06T06:52:40;99592.09;;;11.38;46.64
41202;BME280;26936;50.524;8.684;2023-04-06T06:55:08;99598.50;;;11.64;46.30
41202;BME280;26936;50.524;8.684;2023-04-06T06:57:33;99585.91;;;11.06;47.24
41202;BME280;26936;50.524;8.684;2023-04-06T06:59:58;99588.06;;;11.86;45.25
41202;BME280;26936;50.524;8.684;2023-04-06T07:02:25;99586.00;;;11.86;44.63
41202;BME280;26936;50.524;8.684;2023-04-06T07:04:50;99582.72;;;10.66;46.71
41202;BME280;26936;50.524;8.684;2023-04-06T07:07:15;99584.88;;;10.74;46.12
41202;BME280;26936;50.524;8.684;2023-04-06T07:09:41;99582.66;;;10.94;46.37
41202;BME280;26936;50.524;8.684;2023-04-06T07:12:06;99584.91;;;11.00;45.70
41202;BME280;26936;50.524;8.684;2023-04-06T07:14:31;99585.19;;;11.64;45.40
41202;BME280;26936;50.524;8.684;2023-04-06T07:16:57;99576.69;;;11.77;44.45
41202;BME280;26936;50.524;8.684;2023-04-06T07:19:22;99589.22;;;11.63;45.76
41202;BME280;26936;50.524;8.684;2023-04-06T07:21:47;99592.97;;;11.73;45.28
41202;BME280;26936;50.524;8.684;2023-04-06T07:24:14;99585.56;;;11.16;45.15
41202;BME280;26936;50.524;8.684;2023-04-06T07:26:40;99587.22;;;11.51;45.22
41202;BME280;26936;50.524;8.684;2023-04-06T07:29:05;99584.19;;;11.33;45.31
41202;BME280;26936;50.524;8.684;2023-04-06T07:31:30;99576.22;;;10.94;46.19
41202;BME280;26936;50.524;8.684;2023-04-06T07:33:56;99585.91;;;11.18;45.71
41202;BME280;26936;50.524;8.684;2023-04-06T07:36:21;99582.50;;;11.48;46.20
41202;BME280;26936;50.524;8.684;2023-04-06T07:38:46;99584.75;;;12.21;44.18
41202;BME280;26936;50.524;8.684;2023-04-06T07:41:11;99585.97;;;12.20;43.33
41202;BME280;26936;50.524;8.684;2023-04-06T07:43:37;99581.81;;;12.25;43.75
41202;BME280;26936;50.524;8.684;2023-04-06T07:46:03;99579.59;;;12.07;43.65
41202;BME280;26936;50.524;8.684;2023-04-06T07:48:28;99585.25;;;12.07;44.44
41202;BME280;26936;50.524;8.684;2023-04-06T07:51:03;99575.81;;;12.45;43.98
41202;BME280;26936;50.524;8.684;2023-04-06T07:53:29;99575.56;;;12.08;44.27
41202;BME280;26936;50.524;8.684;2023-04-06T07:55:55;99578.59;;;11.80;43.89
41202;BME280;26936;50.524;8.684;2023-04-06T07:58:21;99575.81;;;11.67;44.70
41202;BME280;26936;50.524;8.684;2023-04-06T08:00:46;99583.66;;;11.85;43.72
41202;BME280;26936;50.524;8.684;2023-04-06T08:03:11;99590.47;;;11.62;44.06
41202;BME280;26936;50.524;8.684;2023-04-06T08:05:37;99587.00;;;11.46;46.22
41202;BME280;26936;50.524;8.684;2023-04-06T08:08:02;99583.28;;;11.36;46.11
41202;BME280;26936;50.524;8.684;2023-04-06T08:10:28;99583.13;;;11.52;45.57
41202;BME280;26936;50.524;8.684;2023-04-06T08:12:53;99580.59;;;11.45;46.05
41202;BME280;26936;50.524;8.684;2023-04-06T08:15:19;99595.19;;;12.12;44.36
41202;BME280;26936;50.524;8.684;2023-04-06T08:17:44;99583.03;;;12.24;43.40
41202;BME280;26936;50.524;8.684;2023-04-06T08:20:10;99586.66;;;12.46;43.82
41202;BME280;26936;50.524;8.684;2023-04-06T08:22:35;99585.19;;;11.98;43.96
41202;BME280;26936;50.524;8.684;2023-04-06T08:25:01;99577.25;;;12.06;44.57
41202;BME280;26936;50.524;8.684;2023-04-06T08:27:26;99578.47;;;12.48;44.42
41202;BME280;26936;50.524;8.684;2023-04-06T08:29:51;99588.19;;;12.99;42.66
41202;BME280;26936;50.524;8.684;2023-04-06T08:32:17;99575.97;;;12.72;43.05
41202;BME280;26936;50.524;8.684;2023-04-06T08:34:42;99573.47;;;12.74;43.37
41202;BME280;26936;50.524;8.684;2023-04-06T08:37:07;99573.00;;;13.45;42.22
41202;BME280;26936;50.524;8.684;2023-04-06T08:39:33;99572.09;;;13.67;42.00
41202;BME280;26936;50.524;8.684;2023-04-06T08:41:59;99565.38;;;14.00;41.24
41202;BME280;26936;50.524;8.684;2023-04-06T08:44:27;99568.38;;;14.42;40.88
41202;BME280;26936;50.524;8.684;2023-04-06T08:46:54;99560.34;;;14.31;41.24
41202;BME280;26936;50.524;8.684;2023-04-06T08:49:19;99565.81;;;13.81;40.22
41202;BME280;26936;50.524;8.684;2023-04-06T08:51:46;99566.97;;;14.28;40.98
41202;BME280;26936;50.524;8.684;2023-04-06T08:54:12;99564.06;;;14.55;40.40
41202;BME280;26936;50.524;8.684;2023-04-06T08:56:38;99563.97;;;14.91;40.08
41202;BME280;26936;50.524;8.684;2023-04-06T08:59:04;99558.75;;;15.41;39.24
41202;BME280;26936;50.524;8.684;2023-04-06T09:01:31;99560.53;;;14.87;39.84
41202;BME280;26936;50.524;8.684;2023-04-06T09:03:59;99552.22;;;15.17;38.81
41202;BME280;26936;50.524;8.684;2023-04-06T09:06:26;99553.34;;;15.10;38.81
41202;BME280;26936;50.524;8.684;2023-04-06T09:08:52;99551.88;;;15.56;38.42
41202;BME280;26936;50.524;8.684;2023-04-06T09:11:17;99553.13;;;14.90;40.50
41202;BME280;26936;50.524;8.684;2023-04-06T09:13:48;99556.16;;;14.68;38.85
41202;BME280;26936;50.524;8.684;2023-04-06T09:16:13;99550.22;;;14.57;39.63
41202;BME280;26936;50.524;8.684;2023-04-06T09:18:39;99550.28;;;14.12;41.00
41202;BME280;26936;50.524;8.684;2023-04-06T09:21:06;99565.09;;;14.94;40.51
41202;BME280;26936;50.524;8.684;2023-04-06T09:23:32;99545.25;;;14.85;40.22
41202;BME280;26936;50.524;8.684;2023-04-06T09:26:14;99543.00;;;15.40;39.72
41202;BME280;26936;50.524;8.684;2023-04-06T09:29:02;99544.19;;;15.71;36.89
41202;BME280;26936;50.524;8.684;2023-04-06T09:31:31;99541.28;;;15.33;39.46
41202;BME280;26936;50.524;8.684;2023-04-06T09:34:00;99535.06;;;15.91;38.59
41202;BME280;26936;50.524;8.684;2023-04-06T09:36:33;99538.03;;;15.73;40.44
41202;BME280;26936;50.524;8.684;2023-04-06T09:39:03;99535.09;;;15.67;38.58
41202;BME280;26936;50.524;8.684;2023-04-06T09:41:36;99539.84;;;15.85;38.69
41202;BME280;26936;50.524;8.684;2023-04-06T09:44:09;99532.50;;;16.31;37.07
41202;BME280;26936;50.524;8.684;2023-04-06T09:49:05;99530.41;;;16.17;38.62
41202;BME280;26936;50.524;8.684;2023-04-06T09:51:35;99533.13;;;15.97;36.64
41202;BME280;26936;50.524;8.684;2023-04-06T09:54:01;99529.00;;;16.94;35.26
41202;BME280;26936;50.524;8.684;2023-04-06T09:56:33;99525.66;;;16.81;36.58
41202;BME280;26936;50.524;8.684;2023-04-06T09:59:02;99524.28;;;16.33;37.70
41202;BME280;26936;50.524;8.684;2023-04-06T10:01:32;99530.69;;;16.57;36.35
41202;BME280;26936;50.524;8.684;2023-04-06T10:06:39;99522.69;;;15.79;38.64
41202;BME280;26936;50.524;8.684;2023-04-06T10:09:07;99510.41;;;15.97;38.63
41202;BME280;26936;50.524;8.684;2023-04-06T10:11:33;99518.25;;;16.02;38.89
41202;BME280;26936;50.524;8.684;2023-04-06T10:13:59;99509.63;;;16.11;35.52
41202;BME280;26936;50.524;8.684;2023-04-06T10:16:25;99510.47;;;16.41;36.75
41202;BME280;26936;50.524;8.684;2023-04-06T10:19:05;99502.78;;;16.03;37.81
41202;BME280;26936;50.524;8.684;2023-04-06T10:21:32;99511.25;;;15.88;38.29
41202;BME280;26936;50.524;8.684;2023-04-06T10:24:00;99502.28;;;16.04;38.49
41202;BME280;26936;50.524;8.684;2023-04-06T10:26:25;99513.88;;;15.77;39.25
41202;BME280;26936;50.524;8.684;2023-04-06T10:28:51;99507.34;;;15.62;39.07
41202;BME280;26936;50.524;8.684;2023-04-06T10:31:27;99502.31;;;16.33;37.33
41202;BME280;26936;50.524;8.684;2023-04-06T10:34:00;99508.28;;;16.36;36.94
41202;BME280;26936;50.524;8.684;2023-04-06T10:36:27;99502.72;;;16.26;35.90
41202;BME280;26936;50.524;8.684;2023-04-06T10:38:58;99504.53;;;16.00;36.77
41202;BME280;26936;50.524;8.684;2023-04-06T10:41:23;99501.03;;;15.67;38.23
41202;BME280;26936;50.524;8.684;2023-04-06T10:43:57;99501.13;;;15.73;38.82
41202;BME280;26936;50.524;8.684;2023-04-06T10:46:26;99500.75;;;16.33;37.42
41202;BME280;26936;50.524;8.684;2023-04-06T10:48:52;99495.03;;;16.03;36.28
41202;BME280;26936;50.524;8.684;2023-04-06T10:51:18;99497.78;;;16.12;37.83
41202;BME280;26936;50.524;8.684;2023-04-06T10:53:48;99510.63;;;16.22;38.52
41202;BME280;26936;50.524;8.684;2023-04-06T10:56:15;99488.28;;;15.39;39.60
41202;BME280;26936;50.524;8.684;2023-04-06T10:58:45;99483.69;;;15.65;38.66
41202;BME280;26936;50.524;8.684;2023-04-06T11:01:12;99486.19;;;15.87;38.74
41202;BME280;26936;50.524;8.684;2023-04-06T11:03:51;99488.69;;;16.08;37.98
41202;BME280;26936;50.524;8.684;2023-04-06T11:06:18;99480.22;;;15.99;38.00
41202;BME280;26936;50.524;8.684;2023-04-06T11:08:43;99481.47;;;15.84;39.01
41202;BME280;26936;50.524;8.684;2023-04-06T11:11:11;99475.03;;;15.60;39.33
41202;BME280;26936;50.524;8.684;2023-04-06T11:13:42;99481.25;;;15.73;39.94
41202;BME280;26936;50.524;8.684;2023-04-06T11:18:47;99465.84;;;14.52;42.39
41202;BME280;26936;50.524;8.684;2023-04-06T11:21:13;99454.22;;;14.83;43.86
41202;BME280;26936;50.524;8.684;2023-04-06T11:23:38;99453.03;;;14.98;40.67
41202;BME280;26936;50.524;8.684;2023-04-06T11:26:03;99456.47;;;15.73;39.98
41202;BME280;26936;50.524;8.684;2023-04-06T11:28:29;99454.25;;;15.77;37.79
41202;BME280;26936;50.524;8.684;2023-04-06T11:30:55;99449.94;;;15.82;38.34
41202;BME280;26936;50.524;8.684;2023-04-06T11:33:21;99457.88;;;15.92;37.13
41202;BME280;26936;50.524;8.684;2023-04-06T11:35:48;99435.47;;;15.94;34.16
41202;BME280;26936;50.524;8.684;2023-04-06T11:38:13;99438.72;;;16.02;32.43
41202;BME280;26936;50.524;8.684;2023-04-06T11:40:38;99439.41;;;15.59;33.51
41202;BME280;26936;50.524;8.684;2023-04-06T11:43:04;99440.53;;;15.76;32.28
41202;BME280;26936;50.524;8.684;2023-04-06T11:45:42;99434.09;;;16.19;33.80
41202;BME280;26936;50.524;8.684;2023-04-06T11:48:17;99441.06;;;16.18;35.84
41202;BME280;26936;50.524;8.684;2023-04-06T11:50:46;99446.44;;;16.01;38.50
41202;BME280;26936;50.524;8.684;2023-04-06T11:53:12;99431.28;;;15.66;38.35
41202;BME280;26936;50.524;8.684;2023-04-06T11:55:38;99441.72;;;15.84;37.49
41202;BME280;26936;50.524;8.684;2023-04-06T11:58:04;99425.78;;;15.48;36.78
41202;BME280;26936;50.524;8.684;2023-04-06T12:00:29;99417.91;;;14.96;37.92
41202;BME280;26936;50.524;8.684;2023-04-06T12:02:59;99429.81;;;15.33;38.10
41202;BME280;26936;50.524;8.684;2023-04-06T12:05:25;99422.97;;;15.16;37.16
41202;BME280;26936;50.524;8.684;2023-04-06T12:07:50;99422.84;;;15.34;36.12
41202;BME280;26936;50.524;8.684;2023-04-06T12:10:15;99425.28;;;15.26;36.22
41202;BME280;26936;50.524;8.684;2023-04-06T12:12:41;99411.69;;;15.54;35.02
41202;BME280;26936;50.524;8.684;2023-04-06T12:15:06;99413.56;;;15.57;35.02
41202;BME280;26936;50.524;8.684;2023-04-06T12:17:32;99404.84;;;15.60;34.59
41202;BME280;26936;50.524;8.684;2023-04-06T12:19:57;99405.50;;;15.41;34.72
41202;BME280;26936;50.524;8.684;2023-04-06T12:22:22;99416.41;;;15.10;35.61
41202;BME280;26936;50.524;8.684;2023-04-06T12:24:48;99413.75;;;15.06;35.45
41202;BME280;26936;50.524;8.684;2023-04-06T12:27:13;99412.31;;;15.11;35.57
41202;BME280;26936;50.524;8.684;2023-04-06T12:29:38;99414.59;;;14.98;35.74
41202;BME280;26936;50.524;8.684;2023-04-06T12:32:03;99417.31;;;14.92;36.95
41202;BME280;26936;50.524;8.684;2023-04-06T12:34:29;99419.72;;;15.08;35.85
41202;BME280;26936;50.524;8.684;2023-04-06T12:36:55;99407.75;;;14.80;36.73
41202;BME280;26936;50.524;8.684;2023-04-06T12:39:21;99413.69;;;14.91;36.02
41202;BME280;26936;50.524;8.684;2023-04-06T12:41:46;99414.09;;;14.75;34.37
41202;BME280;26936;50.524;8.684;2023-04-06T12:44:12;99413.44;;;14.80;35.89
41202;BME280;26936;50.524;8.684;2023-04-06T12:46:37;99404.94;;;14.80;36.02
41202;BME280;26936;50.524;8.684;2023-04-06T12:49:02;99405.66;;;14.90;37.31
41202;BME280;26936;50.524;8.684;2023-04-06T12:51:28;99409.34;;;15.05;35.06
41202;BME280;26936;50.524;8.684;2023-04-06T12:53:54;99407.53;;;15.17;34.95
41202;BME280;26936;50.524;8.684;2023-04-06T12:56:19;99401.56;;;15.15;35.11
41202;BME280;26936;50.524;8.684;2023-04-06T12:58:46;99404.25;;;15.09;35.68
41202;BME280;26936;50.524;8.684;2023-04-06T13:01:13;99401.19;;;14.98;33.37